sensor_id;sensor_type;location;lat;lon;timestamp;P1;durP1;ratioP1;P2;durP2;ratioP2
21777;SDS011;11050;52.222;20.916;2024-02-14T00:00:05;20.00;;;8.50;;
21777;SDS011;11050;52.222;20.916;2024-02-14T00:02:38;19.80;;;8.67;;
21777;SDS011;11050;52.222;20.916;2024-02-14T00:05:14;17.83;;;8.43;;
21777;SDS011;11050;52.222;20.916;2024-02-14T00:07:40;17.60;;;8.87;;
21777;SDS011;11050;52.222;20.916;2024-02-14T00:10:06;20.03;;;8.93;;
21777;SDS011;11050;52.222;20.916;2024-02-14T00:12:33;16.40;;;8.03;;
21777;SDS011;11050;52.222;20.916;2024-02-14T00:15:00;20.63;;;9.77;;
21777;SDS011;11050;52.222;20.916;2024-02-14T00:17:33;20.87;;;10.10;;
21777;SDS011;11050;52.222;20.916;2024-02-14T00:20:03;20.13;;;9.50;;
21777;SDS011;11050;52.222;20.916;2024-02-14T00:22:30;21.83;;;9.17;;
21777;SDS011;11050;52.222;20.916;2024-02-14T00:24:56;20.93;;;9.57;;
21777;SDS011;11050;52.222;20.916;2024-02-14T00:27:22;25.97;;;9.63;;
21777;SDS011;11050;52.222;20.916;2024-02-14T00:29:49;19.30;;;9.30;;
21777;SDS011;11050;52.222;20.916;2024-02-14T00:32:15;17.40;;;10.10;;
21777;SDS011;11050;52.222;20.916;2024-02-14T00:34:41;19.63;;;9.27;;
21777;SDS011;11050;52.222;20.916;2024-02-14T00:37:07;20.40;;;9.87;;
21777;SDS011;11050;52.222;20.916;2024-02-14T00:39:33;18.33;;;9.40;;
21777;SDS011;11050;52.222;20.916;2024-02-14T00:41:59;19.43;;;9.73;;
21777;SDS011;11050;52.222;20.916;2024-02-14T00:44:24;18.60;;;9.23;;
21777;SDS011;11050;52.222;20.916;2024-02-14T00:46:55;20.33;;;10.57;;
21777;SDS011;11050;52.222;20.916;2024-02-14T00:49:24;20.17;;;10.63;;
21777;SDS011;11050;52.222;20.916;2024-02-14T00:51:51;20.83;;;9.70;;
21777;SDS011;11050;52.222;20.916;2024-02-14T00:54:17;21.97;;;9.97;;
21777;SDS011;11050;52.222;20.916;2024-02-14T00:56:42;19.17;;;10.23;;
21777;SDS011;11050;52.222;20.916;2024-02-14T00:59:08;19.33;;;10.47;;
21777;SDS011;11050;52.222;20.916;2024-02-14T01:01:34;17.20;;;9.43;;
21777;SDS011;11050;52.222;20.916;2024-02-14T01:04:00;23.13;;;10.30;;
21777;SDS011;11050;52.222;20.916;2024-02-14T01:06:26;22.87;;;10.53;;
21777;SDS011;11050;52.222;20.916;2024-02-14T01:08:52;22.53;;;10.23;;
21777;SDS011;11050;52.222;20.916;2024-02-14T01:11:18;19.53;;;10.30;;
21777;SDS011;11050;52.222;20.916;2024-02-14T01:13:43;21.63;;;9.63;;
21777;SDS011;11050;52.222;20.916;2024-02-14T01:16:09;19.70;;;9.47;;
21777;SDS011;11050;52.222;20.916;2024-02-14T01:18:35;22.37;;;10.17;;
21777;SDS011;11050;52.222;20.916;2024-02-14T01:21:01;18.90;;;9.90;;
21777;SDS011;11050;52.222;20.916;2024-02-14T01:23:27;21.43;;;10.63;;
21777;SDS011;11050;52.222;20.916;2024-02-14T01:25:53;16.83;;;9.40;;
21777;SDS011;11050;52.222;20.916;2024-02-14T01:28:19;19.63;;;9.60;;
21777;SDS011;11050;52.222;20.916;2024-02-14T01:30:45;24.20;;;10.87;;
21777;SDS011;11050;52.222;20.916;2024-02-14T01:33:11;21.17;;;9.90;;
21777;SDS011;11050;52.222;20.916;2024-02-14T01:35:37;20.53;;;9.63;;
21777;SDS011;11050;52.222;20.916;2024-02-14T01:38:03;21.93;;;9.47;;
21777;SDS011;11050;52.222;20.916;2024-02-14T01:40:31;20.10;;;9.83;;
21777;SDS011;11050;52.222;20.916;2024-02-14T01:42:56;22.70;;;10.50;;
21777;SDS011;11050;52.222;20.916;2024-02-14T01:45:22;21.07;;;10.60;;
21777;SDS011;11050;52.222;20.916;2024-02-14T01:47:48;19.17;;;10.43;;
21777;SDS011;11050;52.222;20.916;2024-02-14T01:50:15;20.90;;;10.33;;
21777;SDS011;11050;52.222;20.916;2024-02-14T01:52:43;21.57;;;10.13;;
21777;SDS011;11050;52.222;20.916;2024-02-14T01:55:10;23.57;;;10.47;;
21777;SDS011;11050;52.222;20.916;2024-02-14T01:57:38;22.40;;;10.43;;
21777;SDS011;11050;52.222;20.916;2024-02-14T02:00:05;23.20;;;10.07;;
21777;SDS011;11050;52.222;20.916;2024-02-14T02:02:40;20.70;;;9.80;;
21777;SDS011;11050;52.222;20.916;2024-02-14T02:05:06;16.83;;;10.03;;
21777;SDS011;11050;52.222;20.916;2024-02-14T02:07:32;19.30;;;9.30;;
21777;SDS011;11050;52.222;20.916;2024-02-14T02:09:58;20.97;;;9.80;;
21777;SDS011;11050;52.222;20.916;2024-02-14T02:12:24;17.87;;;9.10;;
21777;SDS011;11050;52.222;20.916;2024-02-14T02:14:52;20.77;;;9.67;;
21777;SDS011;11050;52.222;20.916;2024-02-14T02:17:18;17.80;;;10.40;;
21777;SDS011;11050;52.222;20.916;2024-02-14T02:19:46;21.20;;;10.13;;
21777;SDS011;11050;52.222;20.916;2024-02-14T02:22:12;19.67;;;10.20;;
21777;SDS011;11050;52.222;20.916;2024-02-14T02:24:37;20.50;;;9.70;;
21777;SDS011;11050;52.222;20.916;2024-02-14T02:27:03;21.50;;;9.47;;
21777;SDS011;11050;52.222;20.916;2024-02-14T02:29:30;22.63;;;10.50;;
21777;SDS011;11050;52.222;20.916;2024-02-14T02:31:57;20.77;;;9.90;;
21777;SDS011;11050;52.222;20.916;2024-02-14T02:34:23;20.27;;;9.77;;
21777;SDS011;11050;52.222;20.916;2024-02-14T02:36:49;21.90;;;10.60;;
21777;SDS011;11050;52.222;20.916;2024-02-14T02:39:16;23.03;;;10.87;;
21777;SDS011;11050;52.222;20.916;2024-02-14T02:41:42;24.00;;;11.27;;
21777;SDS011;11050;52.222;20.916;2024-02-14T02:44:12;22.30;;;10.57;;
21777;SDS011;11050;52.222;20.916;2024-02-14T02:46:38;21.97;;;10.50;;
21777;SDS011;11050;52.222;20.916;2024-02-14T02:49:04;25.83;;;11.90;;
21777;SDS011;11050;52.222;20.916;2024-02-14T02:51:29;21.80;;;10.47;;
21777;SDS011;11050;52.222;20.916;2024-02-14T02:53:56;25.03;;;12.80;;
21777;SDS011;11050;52.222;20.916;2024-02-14T02:56:22;20.93;;;10.80;;
21777;SDS011;11050;52.222;20.916;2024-02-14T02:58:52;20.87;;;11.97;;
21777;SDS011;11050;52.222;20.916;2024-02-14T03:01:20;25.50;;;11.97;;
21777;SDS011;11050;52.222;20.916;2024-02-14T03:03:48;24.90;;;11.50;;
21777;SDS011;11050;52.222;20.916;2024-02-14T03:06:14;25.13;;;13.03;;
21777;SDS011;11050;52.222;20.916;2024-02-14T03:08:40;24.07;;;12.23;;
21777;SDS011;11050;52.222;20.916;2024-02-14T03:11:06;24.47;;;12.07;;
21777;SDS011;11050;52.222;20.916;2024-02-14T03:13:32;28.70;;;12.97;;
21777;SDS011;11050;52.222;20.916;2024-02-14T03:15:59;28.10;;;13.13;;
21777;SDS011;11050;52.222;20.916;2024-02-14T03:18:25;23.27;;;11.57;;
21777;SDS011;11050;52.222;20.916;2024-02-14T03:20:51;26.07;;;12.43;;
21777;SDS011;11050;52.222;20.916;2024-02-14T03:23:18;25.87;;;13.30;;
21777;SDS011;11050;52.222;20.916;2024-02-14T03:25:44;28.57;;;14.13;;
21777;SDS011;11050;52.222;20.916;2024-02-14T03:28:10;29.93;;;14.00;;
21777;SDS011;11050;52.222;20.916;2024-02-14T03:30:38;30.07;;;14.30;;
21777;SDS011;11050;52.222;20.916;2024-02-14T03:33:04;31.93;;;13.70;;
21777;SDS011;11050;52.222;20.916;2024-02-14T03:35:32;29.60;;;14.37;;
21777;SDS011;11050;52.222;20.916;2024-02-14T03:38:01;25.90;;;13.63;;
21777;SDS011;11050;52.222;20.916;2024-02-14T03:40:27;33.13;;;15.10;;
21777;SDS011;11050;52.222;20.916;2024-02-14T03:42:55;27.77;;;14.10;;
21777;SDS011;11050;52.222;20.916;2024-02-14T03:45:22;28.10;;;13.53;;
21777;SDS011;11050;52.222;20.916;2024-02-14T03:47:48;26.17;;;13.53;;
21777;SDS011;11050;52.222;20.916;2024-02-14T03:50:14;27.40;;;14.33;;
21777;SDS011;11050;52.222;20.916;2024-02-14T03:52:41;29.73;;;14.93;;
21777;SDS011;11050;52.222;20.916;2024-02-14T03:55:10;30.10;;;14.10;;
21777;SDS011;11050;52.222;20.916;2024-02-14T03:57:38;31.00;;;14.40;;
21777;SDS011;11050;52.222;20.916;2024-02-14T04:00:05;29.73;;;14.00;;
21777;SDS011;11050;52.222;20.916;2024-02-14T04:02:34;31.47;;;15.13;;
21777;SDS011;11050;52.222;20.916;2024-02-14T04:05:00;29.53;;;14.40;;
21777;SDS011;11050;52.222;20.916;2024-02-14T04:07:27;31.33;;;15.30;;
21777;SDS011;11050;52.222;20.916;2024-02-14T04:09:54;32.40;;;15.03;;
21777;SDS011;11050;52.222;20.916;2024-02-14T04:12:21;30.67;;;15.60;;
21777;SDS011;11050;52.222;20.916;2024-02-14T04:14:47;34.00;;;16.17;;
21777;SDS011;11050;52.222;20.916;2024-02-14T04:17:13;32.00;;;15.23;;
21777;SDS011;11050;52.222;20.916;2024-02-14T04:19:39;31.93;;;15.47;;
21777;SDS011;11050;52.222;20.916;2024-02-14T04:22:05;29.13;;;15.73;;
21777;SDS011;11050;52.222;20.916;2024-02-14T04:24:33;33.33;;;15.80;;
21777;SDS011;11050;52.222;20.916;2024-02-14T04:27:00;31.00;;;15.53;;
21777;SDS011;11050;52.222;20.916;2024-02-14T04:29:27;31.70;;;13.90;;
21777;SDS011;11050;52.222;20.916;2024-02-14T04:31:55;33.00;;;15.03;;
21777;SDS011;11050;52.222;20.916;2024-02-14T04:34:21;33.07;;;15.40;;
21777;SDS011;11050;52.222;20.916;2024-02-14T04:36:48;38.83;;;15.37;;
21777;SDS011;11050;52.222;20.916;2024-02-14T04:39:14;34.83;;;16.03;;
21777;SDS011;11050;52.222;20.916;2024-02-14T04:41:39;37.83;;;15.17;;
21777;SDS011;11050;52.222;20.916;2024-02-14T04:44:05;33.23;;;15.93;;
21777;SDS011;11050;52.222;20.916;2024-02-14T04:46:32;33.10;;;16.50;;
21777;SDS011;11050;52.222;20.916;2024-02-14T04:49:00;31.47;;;15.57;;
21777;SDS011;11050;52.222;20.916;2024-02-14T04:51:28;32.73;;;15.77;;
21777;SDS011;11050;52.222;20.916;2024-02-14T04:53:55;35.97;;;15.23;;
21777;SDS011;11050;52.222;20.916;2024-02-14T04:56:24;36.47;;;15.93;;
21777;SDS011;11050;52.222;20.916;2024-02-14T04:58:52;31.20;;;15.37;;
21777;SDS011;11050;52.222;20.916;2024-02-14T05:01:18;32.27;;;15.90;;
21777;SDS011;11050;52.222;20.916;2024-02-14T05:03:44;28.73;;;13.53;;
21777;SDS011;11050;52.222;20.916;2024-02-14T05:06:10;35.60;;;16.23;;
21777;SDS011;11050;52.222;20.916;2024-02-14T05:08:35;33.93;;;16.67;;
21777;SDS011;11050;52.222;20.916;2024-02-14T05:11:01;36.43;;;15.90;;
21777;SDS011;11050;52.222;20.916;2024-02-14T05:13:28;34.93;;;15.90;;
21777;SDS011;11050;52.222;20.916;2024-02-14T05:15:55;33.13;;;15.77;;
21777;SDS011;11050;52.222;20.916;2024-02-14T05:18:21;27.80;;;14.90;;
21777;SDS011;11050;52.222;20.916;2024-02-14T05:20:47;35.07;;;16.20;;
21777;SDS011;11050;52.222;20.916;2024-02-14T05:23:14;31.87;;;14.83;;
21777;SDS011;11050;52.222;20.916;2024-02-14T05:25:42;35.03;;;15.43;;
21777;SDS011;11050;52.222;20.916;2024-02-14T05:28:09;33.77;;;16.07;;
21777;SDS011;11050;52.222;20.916;2024-02-14T05:30:38;33.33;;;15.40;;
21777;SDS011;11050;52.222;20.916;2024-02-14T05:33:07;30.97;;;14.77;;
21777;SDS011;11050;52.222;20.916;2024-02-14T05:35:33;25.63;;;14.30;;
21777;SDS011;11050;52.222;20.916;2024-02-14T05:37:58;35.30;;;15.00;;
21777;SDS011;11050;52.222;20.916;2024-02-14T05:40:24;35.90;;;13.93;;
21777;SDS011;11050;52.222;20.916;2024-02-14T05:42:50;32.13;;;14.63;;
21777;SDS011;11050;52.222;20.916;2024-02-14T05:45:16;39.70;;;14.87;;
21777;SDS011;11050;52.222;20.916;2024-02-14T05:47:42;33.57;;;15.87;;
21777;SDS011;11050;52.222;20.916;2024-02-14T05:50:08;30.37;;;14.67;;
21777;SDS011;11050;52.222;20.916;2024-02-14T05:52:36;32.83;;;14.97;;
21777;SDS011;11050;52.222;20.916;2024-02-14T05:55:03;33.17;;;14.97;;
21777;SDS011;11050;52.222;20.916;2024-02-14T05:57:30;30.90;;;15.53;;
21777;SDS011;11050;52.222;20.916;2024-02-14T05:59:56;30.07;;;14.90;;
21777;SDS011;11050;52.222;20.916;2024-02-14T06:02:22;36.77;;;15.73;;
21777;SDS011;11050;52.222;20.916;2024-02-14T06:04:49;29.37;;;14.83;;
21777;SDS011;11050;52.222;20.916;2024-02-14T06:07:15;35.03;;;16.47;;
21777;SDS011;11050;52.222;20.916;2024-02-14T06:09:41;31.50;;;15.37;;
21777;SDS011;11050;52.222;20.916;2024-02-14T06:12:07;33.63;;;15.27;;
21777;SDS011;11050;52.222;20.916;2024-02-14T06:14:33;32.20;;;15.70;;
21777;SDS011;11050;52.222;20.916;2024-02-14T06:17:00;28.70;;;14.87;;
21777;SDS011;11050;52.222;20.916;2024-02-14T06:19:26;35.00;;;16.80;;
21777;SDS011;11050;52.222;20.916;2024-02-14T06:21:52;35.30;;;16.83;;
21777;SDS011;11050;52.222;20.916;2024-02-14T06:24:18;32.43;;;16.10;;
21777;SDS011;11050;52.222;20.916;2024-02-14T06:26:45;36.17;;;15.87;;
21777;SDS011;11050;52.222;20.916;2024-02-14T06:29:11;33.27;;;16.37;;
21777;SDS011;11050;52.222;20.916;2024-02-14T06:31:37;30.20;;;15.67;;
21777;SDS011;11050;52.222;20.916;2024-02-14T06:34:02;28.37;;;15.13;;
21777;SDS011;11050;52.222;20.916;2024-02-14T06:36:28;30.23;;;15.47;;
21777;SDS011;11050;52.222;20.916;2024-02-14T06:38:54;33.57;;;16.73;;
21777;SDS011;11050;52.222;20.916;2024-02-14T06:41:20;35.37;;;16.93;;
21777;SDS011;11050;52.222;20.916;2024-02-14T06:43:46;35.07;;;16.87;;
21777;SDS011;11050;52.222;20.916;2024-02-14T06:46:12;32.43;;;16.17;;
21777;SDS011;11050;52.222;20.916;2024-02-14T06:48:38;32.30;;;16.60;;
21777;SDS011;11050;52.222;20.916;2024-02-14T06:51:04;35.00;;;19.10;;
21777;SDS011;11050;52.222;20.916;2024-02-14T06:53:32;35.47;;;18.60;;
21777;SDS011;11050;52.222;20.916;2024-02-14T06:55:58;35.87;;;17.33;;
21777;SDS011;11050;52.222;20.916;2024-02-14T06:58:24;37.83;;;16.20;;
21777;SDS011;11050;52.222;20.916;2024-02-14T07:00:50;35.07;;;16.37;;
21777;SDS011;11050;52.222;20.916;2024-02-14T07:03:15;34.10;;;16.03;;
21777;SDS011;11050;52.222;20.916;2024-02-14T07:05:41;32.43;;;14.23;;
21777;SDS011;11050;52.222;20.916;2024-02-14T07:08:07;29.63;;;14.03;;
21777;SDS011;11050;52.222;20.916;2024-02-14T07:10:33;32.77;;;14.93;;
21777;SDS011;11050;52.222;20.916;2024-02-14T07:12:59;38.90;;;16.70;;
21777;SDS011;11050;52.222;20.916;2024-02-14T07:15:25;30.00;;;16.83;;
21777;SDS011;11050;52.222;20.916;2024-02-14T07:17:53;32.27;;;15.30;;
21777;SDS011;11050;52.222;20.916;2024-02-14T07:20:21;32.83;;;16.40;;
21777;SDS011;11050;52.222;20.916;2024-02-14T07:22:47;30.77;;;16.20;;
21777;SDS011;11050;52.222;20.916;2024-02-14T07:25:18;28.53;;;15.43;;
21777;SDS011;11050;52.222;20.916;2024-02-14T07:27:44;32.83;;;17.03;;
21777;SDS011;11050;52.222;20.916;2024-02-14T07:30:15;32.40;;;16.17;;
21777;SDS011;11050;52.222;20.916;2024-02-14T07:32:42;31.37;;;15.87;;
21777;SDS011;11050;52.222;20.916;2024-02-14T07:35:11;31.20;;;15.27;;
21777;SDS011;11050;52.222;20.916;2024-02-14T07:37:41;25.93;;;14.27;;
21777;SDS011;11050;52.222;20.916;2024-02-14T07:40:07;30.83;;;13.93;;
21777;SDS011;11050;52.222;20.916;2024-02-14T07:42:35;27.23;;;14.57;;
21777;SDS011;11050;52.222;20.916;2024-02-14T07:45:01;27.50;;;13.80;;
21777;SDS011;11050;52.222;20.916;2024-02-14T07:47:28;28.93;;;14.00;;
21777;SDS011;11050;52.222;20.916;2024-02-14T07:49:54;25.73;;;13.97;;
21777;SDS011;11050;52.222;20.916;2024-02-14T07:52:20;33.07;;;14.23;;
21777;SDS011;11050;52.222;20.916;2024-02-14T07:54:46;23.53;;;13.80;;
21777;SDS011;11050;52.222;20.916;2024-02-14T07:57:12;22.93;;;12.90;;
21777;SDS011;11050;52.222;20.916;2024-02-14T07:59:37;32.17;;;14.17;;
21777;SDS011;11050;52.222;20.916;2024-02-14T08:02:04;30.23;;;13.93;;
21777;SDS011;11050;52.222;20.916;2024-02-14T08:04:30;25.77;;;14.47;;
21777;SDS011;11050;52.222;20.916;2024-02-14T08:06:56;33.43;;;15.03;;
21777;SDS011;11050;52.222;20.916;2024-02-14T08:09:21;23.63;;;13.60;;
21777;SDS011;11050;52.222;20.916;2024-02-14T08:11:47;26.00;;;13.90;;
21777;SDS011;11050;52.222;20.916;2024-02-14T08:14:13;25.20;;;13.63;;
21777;SDS011;11050;52.222;20.916;2024-02-14T08:16:39;26.57;;;13.33;;
21777;SDS011;11050;52.222;20.916;2024-02-14T08:19:04;25.63;;;12.50;;
21777;SDS011;11050;52.222;20.916;2024-02-14T08:21:30;23.40;;;12.27;;
21777;SDS011;11050;52.222;20.916;2024-02-14T08:23:56;22.97;;;12.10;;
21777;SDS011;11050;52.222;20.916;2024-02-14T08:26:23;24.10;;;12.40;;
21777;SDS011;11050;52.222;20.916;2024-02-14T08:28:49;26.33;;;12.70;;
21777;SDS011;11050;52.222;20.916;2024-02-14T08:31:15;23.37;;;12.27;;
21777;SDS011;11050;52.222;20.916;2024-02-14T08:33:41;25.23;;;12.30;;
21777;SDS011;11050;52.222;20.916;2024-02-14T08:36:07;19.07;;;12.20;;
21777;SDS011;11050;52.222;20.916;2024-02-14T08:38:33;22.83;;;12.37;;
21777;SDS011;11050;52.222;20.916;2024-02-14T08:41:03;22.97;;;10.90;;
21777;SDS011;11050;52.222;20.916;2024-02-14T08:43:30;25.70;;;12.40;;
21777;SDS011;11050;52.222;20.916;2024-02-14T08:45:56;22.30;;;11.63;;
21777;SDS011;11050;52.222;20.916;2024-02-14T08:48:22;24.40;;;12.53;;
21777;SDS011;11050;52.222;20.916;2024-02-14T08:50:49;21.83;;;11.97;;
21777;SDS011;11050;52.222;20.916;2024-02-14T08:53:15;25.77;;;13.00;;
21777;SDS011;11050;52.222;20.916;2024-02-14T08:55:41;25.63;;;11.80;;
21777;SDS011;11050;52.222;20.916;2024-02-14T08:58:08;18.93;;;11.20;;
21777;SDS011;11050;52.222;20.916;2024-02-14T09:00:37;23.87;;;11.50;;
21777;SDS011;11050;52.222;20.916;2024-02-14T09:03:04;25.37;;;11.60;;
21777;SDS011;11050;52.222;20.916;2024-02-14T09:05:31;17.37;;;10.57;;
21777;SDS011;11050;52.222;20.916;2024-02-14T09:07:57;18.40;;;10.47;;
21777;SDS011;11050;52.222;20.916;2024-02-14T09:10:24;18.40;;;9.67;;
21777;SDS011;11050;52.222;20.916;2024-02-14T09:12:50;20.03;;;10.47;;
21777;SDS011;11050;52.222;20.916;2024-02-14T09:15:16;19.07;;;10.23;;
21777;SDS011;11050;52.222;20.916;2024-02-14T09:17:41;18.13;;;9.70;;
21777;SDS011;11050;52.222;20.916;2024-02-14T09:20:08;15.10;;;9.17;;
21777;SDS011;11050;52.222;20.916;2024-02-14T09:22:38;15.17;;;10.10;;
21777;SDS011;11050;52.222;20.916;2024-02-14T09:25:06;17.57;;;9.83;;
21777;SDS011;11050;52.222;20.916;2024-02-14T09:27:34;22.77;;;10.60;;
21777;SDS011;11050;52.222;20.916;2024-02-14T09:30:03;17.53;;;9.50;;
21777;SDS011;11050;52.222;20.916;2024-02-14T09:32:32;13.77;;;7.80;;
21777;SDS011;11050;52.222;20.916;2024-02-14T09:34:59;11.63;;;6.20;;
21777;SDS011;11050;52.222;20.916;2024-02-14T09:37:25;13.90;;;6.60;;
21777;SDS011;11050;52.222;20.916;2024-02-14T09:39:53;11.03;;;5.77;;
21777;SDS011;11050;52.222;20.916;2024-02-14T09:42:19;10.93;;;5.00;;
21777;SDS011;11050;52.222;20.916;2024-02-14T09:44:58;8.20;;;4.80;;
21777;SDS011;11050;52.222;20.916;2024-02-14T09:47:25;11.77;;;5.20;;
21777;SDS011;11050;52.222;20.916;2024-02-14T09:49:57;11.17;;;5.40;;
21777;SDS011;11050;52.222;20.916;2024-02-14T09:52:25;8.43;;;5.10;;
21777;SDS011;11050;52.222;20.916;2024-02-14T09:54:51;16.30;;;5.03;;
21777;SDS011;11050;52.222;20.916;2024-02-14T09:57:18;10.37;;;4.43;;
21777;SDS011;11050;52.222;20.916;2024-02-14T09:59:46;10.07;;;4.77;;
21777;SDS011;11050;52.222;20.916;2024-02-14T10:02:13;9.97;;;3.80;;
21777;SDS011;11050;52.222;20.916;2024-02-14T10:04:39;8.83;;;4.53;;
21777;SDS011;11050;52.222;20.916;2024-02-14T10:07:05;11.07;;;4.57;;
21777;SDS011;11050;52.222;20.916;2024-02-14T10:09:39;13.00;;;4.20;;
21777;SDS011;11050;52.222;20.916;2024-02-14T10:12:07;9.10;;;3.77;;
21777;SDS011;11050;52.222;20.916;2024-02-14T10:14:37;7.03;;;3.90;;
21777;SDS011;11050;52.222;20.916;2024-02-14T10:17:06;10.90;;;3.97;;
21777;SDS011;11050;52.222;20.916;2024-02-14T10:19:34;8.80;;;4.00;;
21777;SDS011;11050;52.222;20.916;2024-02-14T10:22:01;8.67;;;3.40;;
21777;SDS011;11050;52.222;20.916;2024-02-14T10:24:30;7.93;;;3.77;;
21777;SDS011;11050;52.222;20.916;2024-02-14T10:26:58;7.73;;;3.70;;
21777;SDS011;11050;52.222;20.916;2024-02-14T10:29:27;6.23;;;2.90;;
21777;SDS011;11050;52.222;20.916;2024-02-14T10:31:54;6.07;;;2.90;;
21777;SDS011;11050;52.222;20.916;2024-02-14T10:34:24;4.87;;;3.00;;
21777;SDS011;11050;52.222;20.916;2024-02-14T10:36:52;8.93;;;3.17;;
21777;SDS011;11050;52.222;20.916;2024-02-14T10:39:23;4.17;;;3.17;;
21777;SDS011;11050;52.222;20.916;2024-02-14T10:41:52;5.70;;;2.70;;
21777;SDS011;11050;52.222;20.916;2024-02-14T10:44:19;6.53;;;2.55;;
21777;SDS011;11050;52.222;20.916;2024-02-14T10:46:45;5.60;;;2.50;;
21777;SDS011;11050;52.222;20.916;2024-02-14T10:49:16;4.83;;;2.83;;
21777;SDS011;11050;52.222;20.916;2024-02-14T10:51:45;5.50;;;2.93;;
21777;SDS011;11050;52.222;20.916;2024-02-14T10:54:14;6.43;;;3.20;;
21777;SDS011;11050;52.222;20.916;2024-02-14T10:56:45;5.97;;;3.17;;
21777;SDS011;11050;52.222;20.916;2024-02-14T10:59:19;7.53;;;2.77;;
21777;SDS011;11050;52.222;20.916;2024-02-14T11:01:48;7.30;;;2.90;;
21777;SDS011;11050;52.222;20.916;2024-02-14T11:04:14;8.00;;;2.95;;
21777;SDS011;11050;52.222;20.916;2024-02-14T11:06:45;7.97;;;3.27;;
21777;SDS011;11050;52.222;20.916;2024-02-14T11:09:12;5.07;;;2.50;;
21777;SDS011;11050;52.222;20.916;2024-02-14T11:11:44;5.18;;;2.60;;
21777;SDS011;11050;52.222;20.916;2024-02-14T11:14:18;6.32;;;2.88;;
21777;SDS011;11050;52.222;20.916;2024-02-14T11:16:47;6.07;;;2.20;;
21777;SDS011;11050;52.222;20.916;2024-02-14T11:19:13;4.33;;;2.40;;
21777;SDS011;11050;52.222;20.916;2024-02-14T11:21:41;5.10;;;2.75;;
21777;SDS011;11050;52.222;20.916;2024-02-14T11:24:11;7.20;;;2.88;;
21777;SDS011;11050;52.222;20.916;2024-02-14T11:29:18;4.55;;;2.30;;
21777;SDS011;11050;52.222;20.916;2024-02-14T11:31:45;5.15;;;2.17;;
21777;SDS011;11050;52.222;20.916;2024-02-14T11:34:13;5.30;;;2.33;;
21777;SDS011;11050;52.222;20.916;2024-02-14T11:36:43;3.40;;;2.05;;
21777;SDS011;11050;52.222;20.916;2024-02-14T11:39:10;4.50;;;2.60;;
21777;SDS011;11050;52.222;20.916;2024-02-14T11:41:40;7.05;;;2.80;;
21777;SDS011;11050;52.222;20.916;2024-02-14T11:44:09;6.00;;;2.35;;
21777;SDS011;11050;52.222;20.916;2024-02-14T11:46:35;4.82;;;2.50;;
21777;SDS011;11050;52.222;20.916;2024-02-14T11:49:03;3.95;;;2.08;;
21777;SDS011;11050;52.222;20.916;2024-02-14T11:51:31;5.72;;;2.10;;
21777;SDS011;11050;52.222;20.916;2024-02-14T11:54:00;5.40;;;2.30;;
21777;SDS011;11050;52.222;20.916;2024-02-14T11:56:33;5.30;;;2.25;;
21777;SDS011;11050;52.222;20.916;2024-02-14T11:59:03;5.15;;;2.53;;
21777;SDS011;11050;52.222;20.916;2024-02-14T12:01:35;5.68;;;2.47;;
21777;SDS011;11050;52.222;20.916;2024-02-14T12:04:04;6.40;;;2.55;;
21777;SDS011;11050;52.222;20.916;2024-02-14T12:06:34;6.97;;;2.97;;
21777;SDS011;11050;52.222;20.916;2024-02-14T12:09:01;6.57;;;2.00;;
21777;SDS011;11050;52.222;20.916;2024-02-14T12:11:31;5.30;;;1.95;;
21777;SDS011;11050;52.222;20.916;2024-02-14T12:14:06;6.10;;;2.78;;
21777;SDS011;11050;52.222;20.916;2024-02-14T12:16:38;6.65;;;2.78;;
21777;SDS011;11050;52.222;20.916;2024-02-14T12:19:05;6.70;;;2.40;;
21777;SDS011;11050;52.222;20.916;2024-02-14T12:21:34;6.53;;;2.45;;
21777;SDS011;11050;52.222;20.916;2024-02-14T12:24:02;6.72;;;3.28;;
21777;SDS011;11050;52.222;20.916;2024-02-14T12:26:40;6.75;;;2.75;;
21777;SDS011;11050;52.222;20.916;2024-02-14T12:29:07;4.07;;;2.60;;
21777;SDS011;11050;52.222;20.916;2024-02-14T12:31:38;4.90;;;2.30;;
21777;SDS011;11050;52.222;20.916;2024-02-14T12:34:03;5.30;;;2.47;;
21777;SDS011;11050;52.222;20.916;2024-02-14T12:36:32;4.85;;;2.30;;
21777;SDS011;11050;52.222;20.916;2024-02-14T12:38:59;5.53;;;2.28;;
21777;SDS011;11050;52.222;20.916;2024-02-14T12:41:32;5.65;;;2.60;;
21777;SDS011;11050;52.222;20.916;2024-02-14T12:44:00;4.60;;;2.40;;
21777;SDS011;11050;52.222;20.916;2024-02-14T12:46:26;3.97;;;2.15;;
21777;SDS011;11050;52.222;20.916;2024-02-14T12:48:53;6.30;;;2.58;;
21777;SDS011;11050;52.222;20.916;2024-02-14T12:51:19;4.28;;;2.90;;
21777;SDS011;11050;52.222;20.916;2024-02-14T12:53:45;4.53;;;2.33;;
21777;SDS011;11050;52.222;20.916;2024-02-14T12:56:11;8.65;;;3.20;;
21777;SDS011;11050;52.222;20.916;2024-02-14T12:58:37;6.10;;;2.97;;
21777;SDS011;11050;52.222;20.916;2024-02-14T13:01:03;7.85;;;2.95;;
21777;SDS011;11050;52.222;20.916;2024-02-14T13:03:32;8.88;;;3.03;;
21777;SDS011;11050;52.222;20.916;2024-02-14T13:05:58;4.43;;;2.72;;
21777;SDS011;11050;52.222;20.916;2024-02-14T13:08:25;6.18;;;3.13;;
21777;SDS011;11050;52.222;20.916;2024-02-14T13:10:51;7.40;;;3.08;;
21777;SDS011;11050;52.222;20.916;2024-02-14T13:13:18;6.15;;;3.08;;
21777;SDS011;11050;52.222;20.916;2024-02-14T13:15:43;6.35;;;2.70;;
21777;SDS011;11050;52.222;20.916;2024-02-14T13:18:09;4.20;;;2.92;;
21777;SDS011;11050;52.222;20.916;2024-02-14T13:20:36;6.57;;;2.58;;
21777;SDS011;11050;52.222;20.916;2024-02-14T13:23:03;3.42;;;2.45;;
21777;SDS011;11050;52.222;20.916;2024-02-14T13:25:30;7.93;;;3.08;;
21777;SDS011;11050;52.222;20.916;2024-02-14T13:27:56;6.68;;;3.10;;
21777;SDS011;11050;52.222;20.916;2024-02-14T13:30:23;6.70;;;3.45;;
21777;SDS011;11050;52.222;20.916;2024-02-14T13:32:49;6.82;;;2.78;;
21777;SDS011;11050;52.222;20.916;2024-02-14T13:35:15;6.15;;;2.97;;
21777;SDS011;11050;52.222;20.916;2024-02-14T13:37:41;5.32;;;3.10;;
21777;SDS011;11050;52.222;20.916;2024-02-14T13:40:07;6.60;;;3.03;;
21777;SDS011;11050;52.222;20.916;2024-02-14T13:42:36;4.22;;;2.90;;
21777;SDS011;11050;52.222;20.916;2024-02-14T13:45:03;4.75;;;2.85;;
21777;SDS011;11050;52.222;20.916;2024-02-14T13:47:37;7.43;;;2.88;;
21777;SDS011;11050;52.222;20.916;2024-02-14T13:50:07;7.13;;;3.10;;
21777;SDS011;11050;52.222;20.916;2024-02-14T13:52:34;10.48;;;3.00;;
21777;SDS011;11050;52.222;20.916;2024-02-14T13:55:03;5.85;;;2.97;;
21777;SDS011;11050;52.222;20.916;2024-02-14T13:57:36;6.72;;;2.92;;
21777;SDS011;11050;52.222;20.916;2024-02-14T14:00:04;5.47;;;2.75;;
21777;SDS011;11050;52.222;20.916;2024-02-14T14:02:36;5.38;;;3.30;;
21777;SDS011;11050;52.222;20.916;2024-02-14T14:05:07;7.25;;;2.67;;
21777;SDS011;11050;52.222;20.916;2024-02-14T14:07:34;6.32;;;2.97;;
21777;SDS011;11050;52.222;20.916;2024-02-14T14:10:07;7.70;;;3.13;;
21777;SDS011;11050;52.222;20.916;2024-02-14T14:12:34;10.93;;;3.20;;
21777;SDS011;11050;52.222;20.916;2024-02-14T14:15:01;6.47;;;3.10;;
21777;SDS011;11050;52.222;20.916;2024-02-14T14:17:28;6.00;;;3.30;;
21777;SDS011;11050;52.222;20.916;2024-02-14T14:19:54;7.13;;;3.70;;